Time;durP1;ratioP1;P1;durP2;ratioP2;P2;SDS_P1;SDS_P2;PMS_P1;PMS_P2;Temp;Humidity;BMP_temperature;BMP_pressure;BME280_temperature;BME280_humidity;BME280_pressure;Samples;Min_cycle;Max_cycle;Signal;HPM_P1;HPM_P2
2022/02/02 00:00:54;;;;;;;32.05;5.78;;;9.00;77.40;;;;;;5025209;28;20092;-69
2022/02/02 00:03:24;;;;;;;35.50;6.20;;;9.00;77.50;;;;;;5042225;28;20034;-68
2022/02/02 00:08:46;;;;;;;34.17;5.75;;;9.10;77.70;;;;;;5024951;28;20029;-68
2022/02/02 00:17:34;;;;;;;30.85;6.70;;;9.00;77.90;;;;;;5029796;28;20053;-69
2022/02/02 00:21:56;;;;;;;34.08;6.15;;;9.00;78.10;;;;;;5011800;28;20048;-69
2022/02/02 00:24:34;;;;;;;44.33;7.30;;;9.00;78.10;;;;;;5010618;28;20441;-69
2022/02/02 00:27:05;;;;;;;34.42;7.15;;;9.00;78.20;;;;;;5010979;28;20022;-68
2022/02/02 00:29:38;;;;;;;37.33;6.63;;;9.00;78.20;;;;;;5011133;28;20124;-69
2022/02/02 00:32:20;;;;;;;30.00;5.65;;;9.00;78.30;;;;;;5009915;28;20105;-69
2022/02/02 00:34:46;;;;;;;30.88;6.57;;;9.00;78.40;;;;;;5010105;28;20041;-69
2022/02/02 00:37:14;;;;;;;29.52;6.07;;;8.90;78.60;;;;;;5009561;28;20148;-69
2022/02/02 00:39:39;;;;;;;31.48;5.57;;;8.90;78.70;;;;;;5011860;28;20038;-69
2022/02/02 00:42:05;;;;;;;30.88;5.93;;;8.90;78.90;;;;;;5043296;28;20564;-69
2022/02/02 00:44:33;;;;;;;35.40;6.57;;;8.90;79.00;;;;;;5025328;28;20135;-69
2022/02/02 00:46:58;;;;;;;36.88;6.38;;;8.90;79.10;;;;;;5023205;28;20452;-69
2022/02/02 00:49:24;;;;;;;35.83;7.10;;;8.90;79.30;;;;;;5010198;28;20033;-69
2022/02/02 00:51:55;;;;;;;43.78;7.88;;;8.90;79.40;;;;;;5010874;28;20030;-68
2022/02/02 00:54:23;;;;;;;47.20;7.07;;;8.90;79.60;;;;;;5018725;28;20026;-68
2022/02/02 00:56:51;;;;;;;44.50;7.38;;;9.00;79.80;;;;;;5028480;28;20044;-69
2022/02/02 00:59:18;;;;;;;48.28;7.38;;;9.00;79.80;;;;;;5030202;28;20053;-68
2022/02/02 01:01:44;;;;;;;31.45;6.15;;;9.00;79.90;;;;;;5020532;28;20587;-68
2022/02/02 01:04:10;;;;;;;36.67;6.95;;;9.00;79.90;;;;;;5014717;28;20026;-69
2022/02/02 01:06:40;;;;;;;36.17;6.55;;;9.00;79.80;;;;;;5022553;28;20026;-69
2022/02/02 01:09:32;;;;;;;32.40;7.13;;;9.00;79.90;;;;;;5014368;28;20029;-69
2022/02/02 01:19:33;;;;;;;30.95;6.15;;;9.10;79.90;;;;;;5014468;28;20041;-69
2022/02/02 01:29:52;;;;;;;44.95;7.93;;;9.00;80.20;;;;;;5009538;28;20041;-69
2022/02/02 01:32:18;;;;;;;39.85;6.85;;;9.00;79.60;;;;;;5024327;28;20493;-69
2022/02/02 01:34:44;;;;;;;40.30;7.68;;;9.00;79.60;;;;;;5015849;28;20030;-69
2022/02/02 01:37:10;;;;;;;41.70;7.25;;;9.00;79.50;;;;;;5015994;28;20029;-69
2022/02/02 01:39:36;;;;;;;46.75;7.68;;;9.00;79.40;;;;;;5018370;28;20033;-69
2022/02/02 01:42:06;;;;;;;34.92;6.93;;;9.00;79.40;;;;;;5026232;28;20037;-69
2022/02/02 01:44:44;;;;;;;31.90;6.20;;;8.90;79.30;;;;;;5008892;28;20040;-69
2022/02/02 01:47:11;;;;;;;34.15;6.90;;;8.90;79.30;;;;;;5025695;28;20033;-68
2022/02/02 01:57:35;;;;;;;36.63;8.85;;;8.90;79.10;;;;;;5023149;28;20050;-68
2022/02/02 02:00:00;;;;;;;34.88;7.00;;;8.90;79.20;;;;;;5029456;28;20048;-69
2022/02/02 02:02:26;;;;;;;39.40;6.30;;;8.90;79.10;;;;;;5014928;28;20389;-69
2022/02/02 02:04:52;;;;;;;47.67;7.47;;;8.90;79.00;;;;;;5010704;28;20141;-70
2022/02/02 02:07:17;;;;;;;45.92;8.55;;;8.90;78.90;;;;;;5027032;28;20112;-70
2022/02/02 02:09:43;;;;;;;47.88;7.05;;;8.90;78.90;;;;;;5008179;28;20026;-70
2022/02/02 02:12:11;;;;;;;39.22;7.88;;;8.90;78.80;;;;;;5019128;28;20030;-70
2022/02/02 02:14:57;;;;;;;35.13;7.38;;;8.90;78.80;;;;;;5018920;28;20044;-70
2022/02/02 02:17:25;;;;;;;38.42;6.60;;;8.90;78.90;;;;;;5027954;28;20048;-70
2022/02/02 02:19:51;;;;;;;42.75;7.47;;;8.90;78.90;;;;;;5015656;28;20030;-70
2022/02/02 02:22:28;;;;;;;43.60;7.45;;;8.90;78.90;;;;;;5014804;28;20504;-70
2022/02/02 02:24:53;;;;;;;47.17;8.60;;;8.90;78.80;;;;;;5027342;28;20045;-68
2022/02/02 02:27:22;;;;;;;38.08;6.07;;;8.90;78.80;;;;;;5025377;28;20461;-68
2022/02/02 02:30:00;;;;;;;40.10;6.70;;;8.90;78.80;;;;;;5009488;28;20117;-68
2022/02/02 02:56:44;;;;;;;32.60;6.40;;;8.90;78.30;;;;;;5007350;28;20124;-69
2022/02/02 02:59:15;;;;;;;37.58;6.65;;;8.80;78.50;;;;;;5013882;28;20046;-69
2022/02/02 03:56:30;;;;;;;39.20;7.97;;;8.80;78.00;;;;;;5014167;28;20061;-69
2022/02/02 04:09:48;;;;;;;25.20;4.85;;;8.80;77.40;;;;;;5040119;28;20365;-69
2022/02/02 04:12:29;;;;;;;25.23;5.32;;;8.70;77.30;;;;;;5022663;28;20496;-69
2022/02/02 04:55:35;;;;;;;21.48;4.90;;;8.80;75.80;;;;;;5025969;28;20049;-70
2022/02/02 04:58:13;;;;;;;18.77;4.07;;;8.80;75.90;;;;;;5017665;28;20030;-68
2022/02/02 05:16:27;;;;;;;33.20;6.05;;;8.80;77.00;;;;;;5016151;28;20108;-69
2022/02/02 05:48:54;;;;;;;31.15;6.22;;;8.80;79.40;;;;;;5016635;28;20029;-68
2022/02/02 05:51:23;;;;;;;31.65;5.20;;;8.80;78.60;;;;;;5011571;28;20073;-68
2022/02/02 05:53:50;;;;;;;25.13;4.90;;;8.70;78.50;;;;;;5008294;28;20124;-69
2022/02/02 05:56:16;;;;;;;26.05;4.22;;;8.70;78.60;;;;;;5009272;28;20030;-68
2022/02/02 05:58:45;;;;;;;26.17;4.47;;;8.70;78.60;;;;;;5007587;28;20516;-68
2022/02/02 06:01:12;;;;;;;22.00;4.35;;;8.60;78.30;;;;;;5010483;28;20044;-68
2022/02/02 06:03:45;;;;;;;28.23;6.50;;;8.60;78.00;;;;;;5015120;28;20038;-69
2022/02/02 06:06:12;;;;;;;28.05;4.32;;;8.60;77.70;;;;;;5010524;28;20045;-68
2022/02/02 06:08:42;;;;;;;21.67;4.03;;;8.60;77.60;;;;;;5020334;28;20026;-69
2022/02/02 06:11:11;;;;;;;27.42;4.35;;;8.60;77.40;;;;;;5016629;28;20075;-68
2022/02/02 06:13:51;;;;;;;22.02;5.53;;;8.60;77.40;;;;;;5005781;28;20061;-68
2022/02/02 06:16:18;;;;;;;25.30;5.63;;;8.60;77.30;;;;;;5021622;28;20033;-68
2022/02/02 06:18:46;;;;;;;18.40;4.38;;;8.60;77.40;;;;;;5016167;28;20105;-68
2022/02/02 06:21:14;;;;;;;28.30;5.25;;;8.60;77.50;;;;;;5013827;28;20069;-68
2022/02/02 06:23:55;;;;;;;24.60;4.63;;;8.60;77.70;;;;;;5013535;28;20026;-68
2022/02/02 06:26:23;;;;;;;41.95;6.53;;;8.60;77.90;;;;;;5026087;28;20038;-68
2022/02/02 06:28:51;;;;;;;38.40;7.45;;;8.50;78.30;;;;;;5030359;28;20503;-68
2022/02/02 06:31:20;;;;;;;46.40;7.00;;;8.50;78.70;;;;;;5026283;28;20025;-68
2022/02/02 06:33:51;;;;;;;38.03;6.60;;;8.50;79.00;;;;;;5018769;28;20037;-68
2022/02/02 06:36:17;;;;;;;40.97;6.20;;;8.50;79.30;;;;;;5027458;28;20091;-68
2022/02/02 06:38:44;;;;;;;36.85;6.03;;;8.50;79.50;;;;;;5027838;28;20680;-68
2022/02/02 06:41:09;;;;;;;33.58;7.07;;;8.50;79.60;;;;;;5017751;28;20606;-68
2022/02/02 06:43:35;;;;;;;39.78;7.03;;;8.50;79.70;;;;;;5024488;28;20025;-68
2022/02/02 06:46:03;;;;;;;39.58;6.50;;;8.50;79.70;;;;;;5014699;28;20050;-68
2022/02/02 06:48:31;;;;;;;40.45;6.40;;;8.50;79.60;;;;;;5024308;28;20116;-68
2022/02/02 06:51:04;;;;;;;30.85;5.75;;;8.50;80.00;;;;;;5015376;28;20037;-68
2022/02/02 06:53:46;;;;;;;28.38;5.78;;;8.50;79.10;;;;;;5011459;28;20100;-67
2022/02/02 07:07:44;;;;;;;27.88;5.90;;;8.40;78.40;;;;;;5014325;28;20040;-68
2022/02/02 07:15:26;;;;;;;25.10;4.55;;;8.30;78.00;;;;;;5024144;28;20507;-68
2022/02/02 07:20:55;;;;;;;22.85;4.78;;;8.40;77.80;;;;;;5030827;28;20036;-68
2022/02/02 07:31:24;;;;;;;24.75;4.30;;;8.30;77.80;;;;;;5012306;28;20405;-68
2022/02/02 07:34:00;;;;;;;26.45;4.43;;;8.30;77.90;;;;;;5010428;28;20096;-67
2022/02/02 07:36:31;;;;;;;24.73;5.03;;;8.30;77.70;;;;;;5019646;28;20039;-67
2022/02/02 07:39:04;;;;;;;19.75;4.22;;;8.30;77.60;;;;;;5014684;28;20022;-68
2022/02/02 07:41:35;;;;;;;29.17;4.70;;;8.30;77.70;;;;;;5012567;28;20030;-68
2022/02/02 07:44:11;;;;;;;23.20;4.28;;;8.30;77.60;;;;;;4996082;28;20508;-68
2022/02/02 07:46:42;;;;;;;29.75;6.10;;;8.30;77.60;;;;;;5013483;28;20049;-68
2022/02/02 07:49:10;;;;;;;25.10;4.38;;;8.30;77.50;;;;;;5009230;28;20026;-67
2022/02/02 07:51:37;;;;;;;29.10;5.00;;;8.30;77.50;;;;;;5012491;28;20030;-68
2022/02/02 07:54:08;;;;;;;20.75;4.13;;;8.30;77.60;;;;;;5013713;28;20124;-68
2022/02/02 07:56:41;;;;;;;27.08;4.47;;;8.30;77.70;;;;;;5030163;28;20037;-68
2022/02/02 08:01:42;;;;;;;28.67;5.32;;;8.40;77.80;;;;;;5013131;28;20750;-68
2022/02/02 08:04:08;;;;;;;27.27;4.88;;;8.40;77.80;;;;;;5011722;28;20531;-68
2022/02/02 08:06:36;;;;;;;24.48;5.05;;;8.40;77.90;;;;;;5010383;28;20036;-68
2022/02/02 08:09:02;;;;;;;31.88;5.70;;;8.40;78.10;;;;;;5010772;28;20029;-68
2022/02/02 08:11:31;;;;;;;28.73;5.30;;;8.40;78.20;;;;;;5030348;28;20017;-67
2022/02/02 08:14:00;;;;;;;31.35;5.68;;;8.40;78.40;;;;;;5018800;28;20022;-68
2022/02/02 08:16:26;;;;;;;24.20;4.85;;;8.40;78.60;;;;;;5018301;28;20057;-68
2022/02/02 08:18:54;;;;;;;27.58;5.85;;;8.40;78.80;;;;;;5024268;28;20034;-68
2022/02/02 08:21:20;;;;;;;37.30;6.15;;;8.50;79.00;;;;;;5018038;28;20179;-68
2022/02/02 08:23:46;;;;;;;26.90;5.65;;;8.50;79.10;;;;;;5029396;28;20425;-67
2022/02/02 08:26:14;;;;;;;32.00;6.55;;;8.50;79.20;;;;;;5011787;28;20117;-72
2022/02/02 08:28:45;;;;;;;34.90;5.63;;;8.50;79.20;;;;;;5021907;28;20527;-73
2022/02/02 08:31:12;;;;;;;27.23;5.40;;;8.60;79.30;;;;;;5011557;28;20030;-73
2022/02/02 08:33:40;;;;;;;30.55;5.75;;;8.60;79.30;;;;;;5010042;28;20076;-73
2022/02/02 08:36:14;;;;;;;28.08;5.15;;;8.60;79.40;;;;;;5007799;28;20030;-73
2022/02/02 08:41:14;;;;;;;27.42;4.72;;;8.60;79.50;;;;;;5017576;28;20418;-73
2022/02/02 08:43:49;;;;;;;30.38;6.05;;;8.60;79.60;;;;;;5010083;28;20042;-73
2022/02/02 08:46:35;;;;;;;34.97;4.88;;;8.60;80.20;;;;;;5010574;28;20034;-75
2022/02/02 08:49:05;;;;;;;28.50;5.60;;;8.60;79.70;;;;;;5010152;28;20030;-76
2022/02/02 08:51:39;;;;;;;23.08;4.88;;;8.60;79.70;;;;;;5021701;28;20022;-76
2022/02/02 08:59:03;;;;;;;26.73;5.22;;;8.80;79.90;;;;;;5010776;28;20092;-75
2022/02/02 09:01:33;;;;;;;26.65;4.75;;;8.80;79.70;;;;;;5012810;28;20433;-75
2022/02/02 09:06:43;;;;;;;25.05;5.43;;;8.90;79.40;;;;;;5018022;28;20563;-75
2022/02/02 09:20:08;;;;;;;26.45;4.97;;;9.00;78.60;;;;;;5010665;28;20048;-75
2022/02/02 09:25:33;;;;;;;30.10;4.55;;;9.00;78.50;;;;;;5011836;28;20076;-75
2022/02/02 09:33:52;;;;;;;22.90;4.40;;;9.10;78.30;;;;;;5021052;28;20048;-75
2022/02/02 09:36:18;;;;;;;24.13;4.57;;;9.20;78.20;;;;;;5020058;28;20037;-75
2022/02/02 09:38:44;;;;;;;23.35;4.65;;;9.30;78.20;;;;;;5014150;28;20029;-75
2022/02/02 09:43:36;;;;;;;25.00;5.18;;;9.40;78.20;;;;;;5024745;28;20393;-75
2022/02/02 09:46:08;;;;;;;28.15;4.65;;;9.40;78.20;;;;;;5012505;28;20064;-75
2022/02/02 09:48:45;;;;;;;24.58;4.28;;;9.40;78.10;;;;;;5007586;28;20029;-75
2022/02/02 09:51:15;;;;;;;31.23;4.97;;;9.40;78.20;;;;;;5006034;28;20029;-74
2022/02/02 09:53:50;;;;;;;26.10;5.38;;;9.40;78.20;;;;;;5031118;28;20034;-75
2022/02/02 10:15:46;;;;;;;33.17;5.60;;;9.90;77.80;;;;;;5005978;28;20401;-75
2022/02/02 10:18:21;;;;;;;29.70;5.47;;;9.90;77.60;;;;;;5000580;28;20032;-75
2022/02/02 10:20:52;;;;;;;30.23;7.03;;;9.90;77.70;;;;;;5003080;28;20026;-75
2022/02/02 10:23:33;;;;;;;33.63;6.47;;;9.90;77.70;;;;;;5005554;28;20025;-75
2022/02/02 10:26:17;;;;;;;37.97;7.07;;;9.90;77.70;;;;;;5006028;28;20018;-75
2022/02/02 10:28:43;;;;;;;36.10;6.65;;;9.90;77.70;;;;;;5013528;28;20480;-74
2022/02/02 10:31:09;;;;;;;31.88;6.63;;;9.90;77.60;;;;;;5007352;28;20022;-75
2022/02/02 10:33:36;;;;;;;28.05;5.85;;;10.00;77.70;;;;;;5003015;28;20077;-75
2022/02/02 10:36:19;;;;;;;33.72;7.25;;;10.10;77.40;;;;;;5007573;28;20433;-74
2022/02/02 10:41:53;;;;;;;33.13;6.20;;;10.20;76.50;;;;;;5009399;28;20034;-74
2022/02/02 10:44:38;;;;;;;30.67;5.53;;;10.30;76.80;;;;;;5013123;28;20030;-75
2022/02/02 10:47:17;;;;;;;28.98;5.45;;;10.40;76.60;;;;;;5001831;28;20053;-75
2022/02/02 10:49:53;;;;;;;21.58;5.38;;;10.40;76.50;;;;;;4995746;28;20026;-75
2022/02/02 11:00:50;;;;;;;40.95;6.25;;;10.70;75.10;;;;;;5001879;28;20046;-75
2022/02/02 11:08:42;;;;;;;29.60;5.90;;;10.80;74.20;;;;;;5010173;28;20046;-75
2022/02/02 11:11:10;;;;;;;26.73;5.88;;;10.70;73.20;;;;;;5010604;28;20028;-75
2022/02/02 11:13:35;;;;;;;24.15;4.82;;;10.60;72.90;;;;;;5006760;28;20030;-75
2022/02/02 11:16:03;;;;;;;22.77;5.18;;;10.60;73.40;;;;;;5007466;28;20472;-75
2022/02/02 11:18:36;;;;;;;28.35;5.25;;;10.60;73.30;;;;;;5010159;28;20080;-76
2022/02/02 11:21:09;;;;;;;31.98;5.68;;;10.50;73.30;;;;;;5006532;28;20025;-75
2022/02/02 11:23:48;;;;;;;28.58;6.68;;;10.50;73.30;;;;;;5010189;28;20029;-75
2022/02/02 11:26:40;;;;;;;30.05;5.28;;;10.40;73.60;;;;;;5011099;28;20131;-75
2022/02/02 11:29:07;;;;;;;26.85;5.22;;;10.40;73.80;;;;;;5006687;28;20042;-75
2022/02/02 11:31:32;;;;;;;27.00;6.10;;;10.30;74.00;;;;;;5006055;28;20398;-75
2022/02/02 11:33:59;;;;;;;24.95;4.75;;;10.30;74.40;;;;;;5006131;28;20038;-75
2022/02/02 11:36:35;;;;;;;28.58;6.38;;;10.30;74.50;;;;;;5018896;28;20049;-75
2022/02/02 11:39:06;;;;;;;25.77;5.72;;;10.40;74.30;;;;;;5010869;28;20026;-76
2022/02/02 11:44:15;;;;;;;27.95;5.05;;;10.60;74.70;;;;;;5004219;28;20145;-75
2022/02/02 11:49:54;;;;;;;25.25;6.68;;;12.60;71.20;;;;;;5007113;28;20040;-75
2022/02/02 11:52:38;;;;;;;22.05;4.63;;;14.20;64.70;;;;;;5003340;28;20060;-75
2022/02/02 11:55:10;;;;;;;21.10;4.97;;;15.50;61.20;;;;;;5025405;28;20041;-75
2022/02/02 12:00:51;;;;;;;20.10;5.35;;;17.20;54.50;;;;;;5010599;28;20045;-76
2022/02/02 12:06:57;;;;;;;20.70;5.57;;;18.30;51.10;;;;;;4996739;28;20145;-76
2022/02/02 12:09:46;;;;;;;16.23;4.10;;;18.70;48.60;;;;;;5007072;28;20460;-75
2022/02/02 12:46:01;;;;;;;15.55;4.28;;;20.80;43.50;;;;;;5005643;28;20104;-75
2022/02/02 12:48:15;;;;;;;13.75;3.40;;;21.50;41.30;;;;;;5009889;28;20034;-76
2022/02/02 12:56:26;;;;;;;16.63;4.85;;;22.30;39.40;;;;;;5018251;28;20048;-78
2022/02/02 12:59:34;;;;;;;12.77;4.28;;;22.20;39.10;;;;;;5040206;28;20050;-78
2022/02/02 13:02:21;;;;;;;13.57;4.35;;;21.90;39.60;;;;;;5007478;28;20050;-79
2022/02/02 13:04:53;;;;;;;18.45;3.97;;;21.80;40.00;;;;;;5004922;28;20473;-78
2022/02/02 13:07:20;;;;;;;;;;;22.20;38.60;;;;;;5005453;28;20136;-78
2022/02/02 13:09:49;;;;;;;11.50;4.00;;;22.30;38.30;;;;;;5005377;28;19916;-78
2022/02/02 13:12:17;;;;;;;12.35;4.28;;;22.20;38.60;;;;;;5015636;28;20022;-76
2022/02/02 13:15:03;;;;;;;14.48;4.43;;;22.00;38.50;;;;;;5008414;28;20076;-78
2022/02/02 13:23:13;;;;;;;12.10;3.70;;;21.40;38.90;;;;;;5004312;28;20040;-80
2022/02/02 13:25:41;;;;;;;12.27;3.45;;;21.30;38.50;;;;;;5015620;28;20521;-76
2022/02/02 13:28:09;;;;;;;11.63;3.65;;;21.00;38.50;;;;;;5006057;28;20052;-78
2022/02/02 13:30:49;;;;;;;14.93;3.50;;;20.70;38.80;;;;;;5011660;28;20021;-73
2022/02/02 13:33:29;;;;;;;11.63;3.40;;;20.10;38.90;;;;;;5017164;28;20567;-72
2022/02/02 13:36:15;;;;;;;10.27;2.67;;;19.80;40.00;;;;;;5007274;28;20018;-75
2022/02/02 13:39:12;;;;;;;10.07;3.33;;;19.70;40.10;;;;;;5004156;28;20100;-72
2022/02/02 13:44:57;;;;;;;11.30;3.00;;;19.60;40.60;;;;;;5001506;28;20381;-76
2022/02/02 13:47:59;;;;;;;10.75;2.78;;;20.00;40.20;;;;;;5012021;28;20530;-74
2022/02/02 13:53:22;;;;;;;12.63;3.28;;;21.30;38.60;;;;;;5000692;28;20041;-83
2022/02/02 13:56:08;;;;;;;13.57;3.17;;;21.90;37.60;;;;;;5002623;28;20034;-78
2022/02/02 15:29:05;;;;;;;10.57;3.25;;;17.10;45.40;;;;;;5120558;27;20027;-75
2022/02/02 15:31:32;;;;;;;12.35;3.53;;;17.00;45.90;;;;;;5148589;27;20463;-76
2022/02/02 15:33:59;;;;;;;11.52;3.33;;;16.80;46.20;;;;;;5143399;27;20030;-75
2022/02/02 15:39:13;;;;;;;13.93;3.33;;;16.50;47.20;;;;;;5144381;27;20521;-75
2022/02/02 15:42:19;;;;;;;13.75;3.92;;;16.30;47.70;;;;;;5128613;27;20031;-75
2022/02/02 15:58:21;;;;;;;10.15;3.17;;;15.60;50.70;;;;;;5142473;27;20034;-74
2022/02/02 16:01:33;;;;;;;14.07;4.22;;;15.50;50.90;;;;;;5141141;27;20041;-74
2022/02/02 16:03:38;;;;;;;9.88;2.80;;;15.40;51.00;;;;;;5143270;27;20391;-74
2022/02/02 16:06:28;;;;;;;12.05;3.30;;;15.30;51.50;;;;;;5145054;27;20049;-76
2022/02/02 16:09:18;;;;;;;12.13;3.20;;;15.20;52.10;;;;;;5144273;27;20620;-75
2022/02/02 16:11:45;;;;;;;11.63;3.28;;;15.10;52.40;;;;;;5125792;27;20044;-77
2022/02/02 16:14:22;;;;;;;14.40;3.67;;;15.10;52.80;;;;;;5118073;27;20118;-75
2022/02/02 16:17:39;;;;;;;11.75;3.47;;;14.90;52.90;;;;;;5141257;27;20023;-75
2022/02/02 16:24:37;;;;;;;15.82;3.17;;;14.90;53.20;;;;;;5138643;27;20084;-78
2022/02/02 16:25:13;;;;;;;19.45;3.65;;;14.70;53.70;;;;;;5122867;27;20102;-77
2022/02/02 16:38:21;;;;;;;13.45;3.88;;;14.20;55.90;;;;;;5131477;27;20101;-76
2022/02/02 16:40:50;;;;;;;14.05;3.70;;;14.10;55.60;;;;;;5115086;27;20019;-77
2022/02/02 16:43:18;;;;;;;12.65;3.85;;;14.00;55.80;;;;;;5125698;27;20098;-77
2022/02/02 16:45:52;;;;;;;15.63;3.83;;;14.00;56.10;;;;;;5109051;27;20027;-77
2022/02/02 16:48:19;;;;;;;14.35;3.97;;;13.90;56.30;;;;;;5110343;27;20019;-77
2022/02/02 16:50:49;;;;;;;14.10;3.58;;;13.90;56.70;;;;;;5131410;27;20106;-76
2022/02/02 17:30:48;;;;;;;15.73;3.72;;;13.40;61.50;;;;;;5117680;27;20043;-74
2022/02/02 17:33:22;;;;;;;15.07;3.75;;;13.40;61.70;;;;;;5114740;27;20034;-74
2022/02/02 17:38:32;;;;;;;19.05;4.20;;;13.40;61.90;;;;;;5110126;27;20419;-74
2022/02/02 18:13:53;;;;;;;19.85;5.03;;;13.10;64.10;;;;;;5129914;27;20190;-75
2022/02/02 18:21:08;;;;;;;19.92;5.78;;;13.00;64.70;;;;;;5119581;27;20617;-74
2022/02/02 18:24:00;;;;;;;17.73;5.35;;;13.00;64.80;;;;;;5110465;27;20411;-74
2022/02/02 18:26:52;;;;;;;17.00;5.25;;;13.00;65.00;;;;;;5123673;27;20020;-74
2022/02/02 18:54:53;;;;;;;19.13;6.50;;;12.50;68.10;;;;;;5142775;27;20498;-73
2022/02/02 18:57:30;;;;;;;24.02;7.50;;;12.40;68.20;;;;;;5129067;27;20117;-73
2022/02/02 19:53:48;;;;;;;17.90;10.75;;;11.80;74.40;;;;;;5028290;28;20028;-72
2022/02/02 19:55:23;;;;;;;23.33;10.93;;;11.80;74.40;;;;;;5106261;27;20070;-72
2022/02/02 20:11:28;;;;;;;18.52;10.90;;;11.60;76.10;;;;;;5115953;27;20987;-69
2022/02/02 20:13:54;;;;;;;17.25;11.70;;;11.60;76.30;;;;;;5133504;27;20035;-70
2022/02/02 20:16:19;;;;;;;17.65;11.43;;;11.60;76.70;;;;;;5133563;27;20475;-70
2022/02/02 20:18:47;;;;;;;20.92;13.43;;;11.50;76.70;;;;;;5132445;27;20479;-70
2022/02/02 20:21:16;;;;;;;19.15;12.88;;;11.50;77.00;;;;;;5088450;28;20083;-70
2022/02/02 20:23:48;;;;;;;17.73;12.05;;;11.50;77.00;;;;;;5086073;28;20028;-70
2022/02/02 20:26:16;;;;;;;17.43;11.87;;;11.50;77.40;;;;;;5090845;28;20040;-69
2022/02/02 20:28:44;;;;;;;18.70;13.20;;;11.50;77.50;;;;;;5091482;28;20028;-70
2022/02/02 20:31:10;;;;;;;17.15;12.20;;;11.50;77.80;;;;;;5089959;28;20028;-70
2022/02/02 20:33:36;;;;;;;20.92;14.50;;;11.50;77.90;;;;;;5075258;28;20524;-71
2022/02/02 20:36:02;;;;;;;22.92;13.38;;;11.50;78.40;;;;;;5083486;28;20039;-71
2022/02/02 20:38:28;;;;;;;19.17;13.23;;;11.40;78.70;;;;;;5091723;28;20034;-71
2022/02/02 20:40:54;;;;;;;21.08;14.57;;;11.30;78.80;;;;;;5090269;28;20582;-70
2022/02/02 20:46:27;;;;;;;20.05;14.32;;;11.30;79.20;;;;;;5092404;28;20036;-70
2022/02/02 21:00:28;;;;;;;21.95;14.85;;;11.30;79.70;;;;;;5078992;28;20503;-71
2022/02/02 21:03:18;;;;;;;22.52;16.30;;;11.30;79.70;;;;;;5081842;28;20028;-70
2022/02/02 21:06:02;;;;;;;24.60;15.48;;;11.20;80.20;;;;;;5082409;28;20439;-70
2022/02/02 21:11:16;;;;;;;21.80;16.25;;;11.10;80.90;;;;;;5087333;28;20051;-71
2022/02/02 21:13:44;;;;;;;25.75;16.80;;;11.10;81.00;;;;;;5079957;28;20090;-70
2022/02/02 21:16:14;;;;;;;25.95;16.27;;;11.10;81.40;;;;;;5087080;28;20119;-70
2022/02/02 21:18:41;;;;;;;24.73;16.58;;;11.00;81.60;;;;;;5078349;28;20042;-70
2022/02/02 21:26:58;;;;;;;26.65;17.90;;;10.90;82.10;;;;;;5130837;27;20064;-70
2022/02/02 21:29:25;;;;;;;;;;;10.90;82.40;;;;;;5103672;27;20403;-70
2022/02/02 21:31:51;;;;;;;25.42;15.63;;;10.90;82.10;;;;;;5130587;27;19907;-70
2022/02/02 21:34:21;;;;;;;25.27;15.73;;;11.00;82.00;;;;;;5130126;27;20558;-70
2022/02/02 21:36:47;;;;;;;27.15;17.50;;;11.00;82.40;;;;;;5110538;28;20069;-70
2022/02/02 21:39:24;;;;;;;28.92;17.88;;;10.90;82.80;;;;;;5093468;27;20436;-70
2022/02/02 21:41:52;;;;;;;28.98;18.00;;;10.90;83.00;;;;;;5123872;27;20502;-70
2022/02/02 21:44:19;;;;;;;29.17;19.38;;;10.90;83.10;;;;;;5120841;27;20027;-69
2022/02/02 21:46:45;;;;;;;28.13;18.42;;;10.90;83.60;;;;;;5119840;27;20142;-71
2022/02/02 21:49:17;;;;;;;29.08;18.92;;;10.90;83.60;;;;;;5127204;27;20034;-70
2022/02/02 21:52:07;;;;;;;30.10;19.00;;;10.90;83.90;;;;;;5129728;27;20106;-70
2022/02/02 21:54:29;;;;;;;28.98;17.48;;;10.90;83.80;;;;;;5113080;27;20403;-70
2022/02/02 21:56:56;;;;;;;30.00;20.35;;;10.90;83.80;;;;;;5130650;27;20023;-70
2022/02/02 21:59:22;;;;;;;38.95;21.83;;;10.80;84.00;;;;;;5120144;27;20155;-71
2022/02/02 22:01:47;;;;;;;32.83;20.40;;;10.80;84.20;;;;;;5119069;27;20056;-70
2022/02/02 22:04:13;;;;;;;30.63;19.58;;;10.80;84.20;;;;;;5106555;27;20443;-70
2022/02/02 22:06:39;;;;;;;30.63;19.75;;;10.80;84.20;;;;;;5129891;27;20076;-71
2022/02/02 22:09:05;;;;;;;30.55;19.65;;;10.90;84.20;;;;;;5111424;27;20066;-70
2022/02/02 22:11:31;;;;;;;34.50;21.13;;;10.90;84.10;;;;;;5129351;27;20022;-70
2022/02/02 22:14:20;;;;;;;34.28;21.13;;;10.90;84.10;;;;;;5100598;28;20038;-70
2022/02/02 22:16:45;;;;;;;34.03;21.65;;;10.90;84.20;;;;;;5118790;27;20043;-70
2022/02/02 22:19:11;;;;;;;32.42;20.70;;;10.90;84.40;;;;;;5123155;27;20486;-70
2022/02/02 22:21:36;;;;;;;32.70;21.05;;;10.90;84.50;;;;;;5106568;27;20028;-70
2022/02/02 22:24:03;;;;;;;30.60;19.45;;;10.90;84.50;;;;;;5125095;27;20488;-71
2022/02/02 22:26:29;;;;;;;29.27;20.02;;;10.90;84.50;;;;;;5141364;27;20092;-70
2022/02/02 22:28:55;;;;;;;32.80;20.95;;;10.80;84.70;;;;;;5095024;27;20046;-70
2022/02/02 22:31:21;;;;;;;32.30;22.10;;;10.80;84.90;;;;;;5136956;27;20030;-70
2022/02/02 22:33:47;;;;;;;29.70;20.90;;;10.80;85.10;;;;;;5130444;27;20502;-70
2022/02/02 22:36:14;;;;;;;31.55;22.33;;;10.80;85.30;;;;;;5129888;27;20027;-69
2022/02/02 22:38:42;;;;;;;30.30;20.15;;;10.80;85.70;;;;;;5129231;27;20168;-70
2022/02/02 22:41:20;;;;;;;30.52;20.00;;;10.70;85.60;;;;;;5127478;27;20039;-70
2022/02/02 22:43:51;;;;;;;30.25;21.83;;;10.80;85.60;;;;;;5121402;27;20050;-70
2022/02/02 22:46:21;;;;;;;31.65;21.58;;;10.70;85.60;;;;;;5105194;27;20134;-70
2022/02/02 22:48:47;;;;;;;32.10;20.63;;;10.70;85.80;;;;;;5125028;27;20023;-70
2022/02/02 22:51:13;;;;;;;30.38;21.83;;;10.70;86.00;;;;;;5123290;27;20063;-70
2022/02/02 22:53:39;;;;;;;31.73;22.48;;;10.70;86.20;;;;;;5121747;27;20016;-70
2022/02/02 22:56:04;;;;;;;30.40;20.55;;;10.60;86.30;;;;;;5102206;27;20098;-70
2022/02/02 22:58:30;;;;;;;27.23;20.02;;;10.60;86.40;;;;;;5127872;27;20028;-70
2022/02/02 23:00:56;;;;;;;31.13;20.77;;;10.60;86.40;;;;;;5122247;27;20027;-70
2022/02/02 23:03:23;;;;;;;30.13;21.15;;;10.70;86.50;;;;;;5097974;27;20035;-70
2022/02/02 23:05:59;;;;;;;31.80;22.75;;;10.60;86.30;;;;;;5093749;27;20023;-70
2022/02/02 23:08:28;;;;;;;30.20;21.70;;;10.60;87.10;;;;;;5121588;27;20451;-70
2022/02/02 23:10:54;;;;;;;29.23;21.27;;;10.70;86.60;;;;;;5105052;28;20084;-70
2022/02/02 23:13:20;;;;;;;30.50;21.70;;;10.70;86.50;;;;;;5104858;28;20037;-70
2022/02/02 23:16:11;;;;;;;32.95;23.80;;;10.70;86.40;;;;;;5122391;28;20024;-70
2022/02/02 23:18:35;;;;;;;30.80;22.58;;;10.70;86.60;;;;;;5111647;28;20063;-70
2022/02/02 23:21:06;;;;;;;34.58;25.40;;;10.70;86.70;;;;;;5088570;28;20070;-70
2022/02/02 23:23:37;;;;;;;33.08;24.33;;;10.70;86.70;;;;;;5125178;28;20053;-69
2022/02/02 23:26:04;;;;;;;33.67;24.35;;;10.70;86.60;;;;;;5125604;28;20030;-70
2022/02/02 23:28:36;;;;;;;30.63;22.35;;;10.60;86.60;;;;;;5127443;28;20543;-70
2022/02/02 23:31:05;;;;;;;41.28;28.00;;;10.60;86.60;;;;;;5126490;27;20023;-70
2022/02/02 23:33:31;;;;;;;30.35;23.40;;;10.60;86.90;;;;;;5118443;27;20055;-70
2022/02/02 23:35:58;;;;;;;33.25;25.00;;;10.60;86.90;;;;;;5132261;27;20023;-70
2022/02/02 23:38:24;;;;;;;32.75;24.88;;;10.60;86.90;;;;;;5133294;27;20499;-69
2022/02/02 23:43:23;;;;;;;40.53;26.95;;;10.60;87.10;;;;;;5133501;27;20042;-70
2022/02/02 23:45:57;;;;;;;34.70;23.85;;;10.50;87.20;;;;;;5133464;27;20033;-70
2022/02/02 23:48:24;;;;;;;34.08;26.33;;;10.50;87.30;;;;;;5120797;27;20022;-70
2022/02/02 23:50:53;;;;;;;33.03;22.98;;;10.50;87.50;;;;;;5133763;27;20034;-69
2022/02/02 23:53:24;;;;;;;31.13;23.60;;;10.50;87.60;;;;;;5112140;28;20080;-69
2022/02/02 23:56:05;;;;;;;36.03;26.13;;;10.50;87.70;;;;;;5126708;27;20019;-69
2022/02/02 23:58:37;;;;;;;31.13;23.15;;;10.40;87.90;;;;;;5133539;27;20026;-70
